sensor_id;sensor_type;location;lat;lon;timestamp;P1;durP1;ratioP1;P2;durP2;ratioP2
48935;SDS011;34745;52.276;10.528;2023-03-14T00:01:23;2.67;;;1.87;;
48935;SDS011;34745;52.276;10.528;2023-03-14T00:03:50;2.10;;;1.90;;
48935;SDS011;34745;52.276;10.528;2023-03-14T00:06:17;3.47;;;2.00;;
48935;SDS011;34745;52.276;10.528;2023-03-14T00:08:45;5.10;;;1.90;;
48935;SDS011;34745;52.276;10.528;2023-03-14T00:11:13;3.87;;;1.90;;
48935;SDS011;34745;52.276;10.528;2023-03-14T00:13:42;2.97;;;1.80;;
48935;SDS011;34745;52.276;10.528;2023-03-14T00:16:10;1.93;;;1.80;;
48935;SDS011;34745;52.276;10.528;2023-03-14T00:18:39;2.80;;;1.70;;
48935;SDS011;34745;52.276;10.528;2023-03-14T00:21:07;2.67;;;1.90;;
48935;SDS011;34745;52.276;10.528;2023-03-14T00:23:36;2.00;;;1.73;;
48935;SDS011;34745;52.276;10.528;2023-03-14T00:26:05;2.00;;;1.57;;
48935;SDS011;34745;52.276;10.528;2023-03-14T00:28:33;1.80;;;1.70;;
48935;SDS011;34745;52.276;10.528;2023-03-14T00:31:01;3.17;;;1.87;;
48935;SDS011;34745;52.276;10.528;2023-03-14T00:33:29;3.20;;;1.87;;
48935;SDS011;34745;52.276;10.528;2023-03-14T00:35:58;3.30;;;1.83;;
48935;SDS011;34745;52.276;10.528;2023-03-14T00:38:26;3.87;;;1.77;;
48935;SDS011;34745;52.276;10.528;2023-03-14T00:40:54;1.63;;;1.50;;
48935;SDS011;34745;52.276;10.528;2023-03-14T00:43:21;2.43;;;1.70;;
48935;SDS011;34745;52.276;10.528;2023-03-14T00:45:49;5.63;;;1.80;;
48935;SDS011;34745;52.276;10.528;2023-03-14T00:48:16;2.20;;;1.50;;
48935;SDS011;34745;52.276;10.528;2023-03-14T00:50:44;3.03;;;1.67;;
48935;SDS011;34745;52.276;10.528;2023-03-14T00:53:12;1.70;;;1.60;;
48935;SDS011;34745;52.276;10.528;2023-03-14T00:55:40;5.27;;;1.60;;
48935;SDS011;34745;52.276;10.528;2023-03-14T00:58:08;3.10;;;1.90;;
48935;SDS011;34745;52.276;10.528;2023-03-14T01:00:36;7.80;;;1.83;;
48935;SDS011;34745;52.276;10.528;2023-03-14T01:03:03;2.77;;;1.67;;
48935;SDS011;34745;52.276;10.528;2023-03-14T01:05:32;5.87;;;1.90;;
48935;SDS011;34745;52.276;10.528;2023-03-14T01:07:58;6.03;;;1.87;;
48935;SDS011;34745;52.276;10.528;2023-03-14T01:10:27;3.70;;;1.67;;
48935;SDS011;34745;52.276;10.528;2023-03-14T01:12:54;4.10;;;1.43;;
48935;SDS011;34745;52.276;10.528;2023-03-14T01:15:22;4.43;;;1.60;;
48935;SDS011;34745;52.276;10.528;2023-03-14T01:17:49;2.90;;;1.50;;
48935;SDS011;34745;52.276;10.528;2023-03-14T01:20:16;3.63;;;1.60;;
48935;SDS011;34745;52.276;10.528;2023-03-14T01:22:43;4.83;;;1.97;;
48935;SDS011;34745;52.276;10.528;2023-03-14T01:25:11;1.90;;;1.70;;
48935;SDS011;34745;52.276;10.528;2023-03-14T01:27:42;2.03;;;1.33;;
48935;SDS011;34745;52.276;10.528;2023-03-14T01:30:10;1.50;;;1.40;;
48935;SDS011;34745;52.276;10.528;2023-03-14T01:32:38;5.03;;;2.13;;
48935;SDS011;34745;52.276;10.528;2023-03-14T01:35:06;1.50;;;1.40;;
48935;SDS011;34745;52.276;10.528;2023-03-14T01:37:33;2.90;;;1.60;;
48935;SDS011;34745;52.276;10.528;2023-03-14T01:40:01;3.17;;;1.77;;
48935;SDS011;34745;52.276;10.528;2023-03-14T01:42:30;5.27;;;2.17;;
48935;SDS011;34745;52.276;10.528;2023-03-14T01:44:59;7.43;;;2.40;;
48935;SDS011;34745;52.276;10.528;2023-03-14T01:47:27;5.63;;;2.10;;
48935;SDS011;34745;52.276;10.528;2023-03-14T01:49:56;3.73;;;2.50;;
48935;SDS011;34745;52.276;10.528;2023-03-14T01:52:26;7.40;;;2.70;;
48935;SDS011;34745;52.276;10.528;2023-03-14T01:54:59;2.50;;;1.93;;
48935;SDS011;34745;52.276;10.528;2023-03-14T01:57:32;4.80;;;2.10;;
48935;SDS011;34745;52.276;10.528;2023-03-14T02:00:07;2.53;;;1.60;;
48935;SDS011;34745;52.276;10.528;2023-03-14T02:02:40;4.13;;;1.53;;
48935;SDS011;34745;52.276;10.528;2023-03-14T02:05:09;1.57;;;1.47;;
48935;SDS011;34745;52.276;10.528;2023-03-14T02:07:39;4.57;;;1.57;;
48935;SDS011;34745;52.276;10.528;2023-03-14T02:10:12;3.90;;;1.80;;
48935;SDS011;34745;52.276;10.528;2023-03-14T02:12:40;4.63;;;1.90;;
48935;SDS011;34745;52.276;10.528;2023-03-14T02:15:09;4.13;;;1.87;;
48935;SDS011;34745;52.276;10.528;2023-03-14T02:17:36;4.60;;;2.00;;
48935;SDS011;34745;52.276;10.528;2023-03-14T02:20:22;2.10;;;1.60;;
48935;SDS011;34745;52.276;10.528;2023-03-14T02:22:53;3.57;;;1.67;;
48935;SDS011;34745;52.276;10.528;2023-03-14T02:25:22;1.83;;;1.53;;
48935;SDS011;34745;52.276;10.528;2023-03-14T02:27:58;7.67;;;1.90;;
48935;SDS011;34745;52.276;10.528;2023-03-14T02:30:27;6.33;;;2.07;;
48935;SDS011;34745;52.276;10.528;2023-03-14T02:32:55;3.00;;;1.73;;
48935;SDS011;34745;52.276;10.528;2023-03-14T02:35:27;3.27;;;1.60;;
48935;SDS011;34745;52.276;10.528;2023-03-14T02:37:57;3.53;;;1.63;;
48935;SDS011;34745;52.276;10.528;2023-03-14T02:40:29;3.77;;;1.50;;
48935;SDS011;34745;52.276;10.528;2023-03-14T02:42:56;3.17;;;1.30;;
48935;SDS011;34745;52.276;10.528;2023-03-14T02:48:15;1.67;;;1.30;;
48935;SDS011;34745;52.276;10.528;2023-03-14T02:50:44;1.93;;;1.20;;
48935;SDS011;34745;52.276;10.528;2023-03-14T02:53:14;3.43;;;1.30;;
48935;SDS011;34745;52.276;10.528;2023-03-14T02:55:44;2.63;;;1.60;;
48935;SDS011;34745;52.276;10.528;2023-03-14T02:58:14;4.57;;;1.70;;
48935;SDS011;34745;52.276;10.528;2023-03-14T03:00:41;3.43;;;1.20;;
48935;SDS011;34745;52.276;10.528;2023-03-14T03:03:08;5.03;;;1.53;;
48935;SDS011;34745;52.276;10.528;2023-03-14T03:05:36;3.43;;;1.20;;
48935;SDS011;34745;52.276;10.528;2023-03-14T03:08:03;2.87;;;1.20;;
48935;SDS011;34745;52.276;10.528;2023-03-14T03:10:30;2.50;;;1.20;;
48935;SDS011;34745;52.276;10.528;2023-03-14T03:12:58;2.77;;;1.10;;
48935;SDS011;34745;52.276;10.528;2023-03-14T03:15:26;2.80;;;1.50;;
48935;SDS011;34745;52.276;10.528;2023-03-14T03:17:54;3.23;;;1.40;;
48935;SDS011;34745;52.276;10.528;2023-03-14T03:20:21;2.97;;;1.20;;
48935;SDS011;34745;52.276;10.528;2023-03-14T03:22:47;5.13;;;1.60;;
48935;SDS011;34745;52.276;10.528;2023-03-14T03:25:16;1.93;;;1.10;;
48935;SDS011;34745;52.276;10.528;2023-03-14T03:27:43;3.37;;;1.20;;
48935;SDS011;34745;52.276;10.528;2023-03-14T03:30:10;1.10;;;1.03;;
48935;SDS011;34745;52.276;10.528;2023-03-14T03:32:39;2.63;;;1.40;;
48935;SDS011;34745;52.276;10.528;2023-03-14T03:35:06;3.90;;;1.40;;
48935;SDS011;34745;52.276;10.528;2023-03-14T03:37:34;3.17;;;1.43;;
48935;SDS011;34745;52.276;10.528;2023-03-14T03:40:02;2.23;;;1.30;;
48935;SDS011;34745;52.276;10.528;2023-03-14T03:42:32;1.37;;;1.20;;
48935;SDS011;34745;52.276;10.528;2023-03-14T03:45:00;1.93;;;1.23;;
48935;SDS011;34745;52.276;10.528;2023-03-14T03:47:27;4.83;;;1.40;;
48935;SDS011;34745;52.276;10.528;2023-03-14T03:49:57;4.20;;;1.30;;
48935;SDS011;34745;52.276;10.528;2023-03-14T03:52:24;1.50;;;1.20;;
48935;SDS011;34745;52.276;10.528;2023-03-14T03:54:51;3.37;;;1.50;;
48935;SDS011;34745;52.276;10.528;2023-03-14T03:57:19;6.27;;;1.50;;
48935;SDS011;34745;52.276;10.528;2023-03-14T03:59:46;9.33;;;1.40;;
48935;SDS011;34745;52.276;10.528;2023-03-14T04:02:13;3.93;;;1.37;;
48935;SDS011;34745;52.276;10.528;2023-03-14T04:04:40;2.73;;;1.47;;
48935;SDS011;34745;52.276;10.528;2023-03-14T04:07:08;2.93;;;1.40;;
48935;SDS011;34745;52.276;10.528;2023-03-14T04:09:37;3.37;;;1.60;;
48935;SDS011;34745;52.276;10.528;2023-03-14T04:12:05;2.67;;;1.50;;
48935;SDS011;34745;52.276;10.528;2023-03-14T04:14:32;2.40;;;1.50;;
48935;SDS011;34745;52.276;10.528;2023-03-14T04:16:59;5.47;;;1.73;;
48935;SDS011;34745;52.276;10.528;2023-03-14T04:19:26;2.97;;;1.60;;
48935;SDS011;34745;52.276;10.528;2023-03-14T04:21:53;2.73;;;1.40;;
48935;SDS011;34745;52.276;10.528;2023-03-14T04:24:22;2.97;;;1.40;;
48935;SDS011;34745;52.276;10.528;2023-03-14T04:26:49;10.37;;;1.60;;
48935;SDS011;34745;52.276;10.528;2023-03-14T04:29:16;3.43;;;1.37;;
48935;SDS011;34745;52.276;10.528;2023-03-14T04:31:43;3.03;;;1.57;;
48935;SDS011;34745;52.276;10.528;2023-03-14T04:34:10;6.17;;;1.73;;
48935;SDS011;34745;52.276;10.528;2023-03-14T04:36:37;4.40;;;1.83;;
48935;SDS011;34745;52.276;10.528;2023-03-14T04:39:05;7.07;;;1.70;;
48935;SDS011;34745;52.276;10.528;2023-03-14T04:41:33;3.43;;;1.40;;
48935;SDS011;34745;52.276;10.528;2023-03-14T04:44:01;1.80;;;1.20;;
48935;SDS011;34745;52.276;10.528;2023-03-14T04:46:27;4.13;;;1.43;;
48935;SDS011;34745;52.276;10.528;2023-03-14T04:48:55;4.20;;;1.40;;
48935;SDS011;34745;52.276;10.528;2023-03-14T04:51:22;2.50;;;1.50;;
48935;SDS011;34745;52.276;10.528;2023-03-14T04:53:53;4.30;;;1.40;;
48935;SDS011;34745;52.276;10.528;2023-03-14T04:56:21;4.03;;;1.30;;
48935;SDS011;34745;52.276;10.528;2023-03-14T04:58:49;2.43;;;1.30;;
48935;SDS011;34745;52.276;10.528;2023-03-14T05:01:16;2.07;;;1.20;;
48935;SDS011;34745;52.276;10.528;2023-03-14T05:03:44;4.50;;;1.40;;
48935;SDS011;34745;52.276;10.528;2023-03-14T05:06:11;3.17;;;1.43;;
48935;SDS011;34745;52.276;10.528;2023-03-14T05:08:38;5.37;;;1.70;;
48935;SDS011;34745;52.276;10.528;2023-03-14T05:11:05;3.87;;;1.37;;
48935;SDS011;34745;52.276;10.528;2023-03-14T05:13:32;2.70;;;1.50;;
48935;SDS011;34745;52.276;10.528;2023-03-14T05:16:07;3.37;;;1.20;;
48935;SDS011;34745;52.276;10.528;2023-03-14T05:18:36;4.23;;;1.30;;
48935;SDS011;34745;52.276;10.528;2023-03-14T05:21:03;2.37;;;1.00;;
48935;SDS011;34745;52.276;10.528;2023-03-14T05:23:32;4.77;;;1.20;;
48935;SDS011;34745;52.276;10.528;2023-03-14T05:25:58;1.53;;;1.00;;
48935;SDS011;34745;52.276;10.528;2023-03-14T05:28:25;0.97;;;0.97;;
48935;SDS011;34745;52.276;10.528;2023-03-14T05:30:53;2.50;;;0.90;;
48935;SDS011;34745;52.276;10.528;2023-03-14T05:33:21;2.13;;;1.03;;
48935;SDS011;34745;52.276;10.528;2023-03-14T05:35:48;5.00;;;1.03;;
48935;SDS011;34745;52.276;10.528;2023-03-14T05:38:15;7.67;;;1.20;;
48935;SDS011;34745;52.276;10.528;2023-03-14T05:40:42;1.00;;;0.80;;
48935;SDS011;34745;52.276;10.528;2023-03-14T05:43:11;6.23;;;1.13;;
48935;SDS011;34745;52.276;10.528;2023-03-14T05:45:38;2.90;;;1.20;;
48935;SDS011;34745;52.276;10.528;2023-03-14T05:48:05;2.97;;;0.97;;
48935;SDS011;34745;52.276;10.528;2023-03-14T05:50:33;1.90;;;0.97;;
48935;SDS011;34745;52.276;10.528;2023-03-14T05:53:00;0.80;;;0.80;;
48935;SDS011;34745;52.276;10.528;2023-03-14T05:55:27;2.77;;;1.00;;
48935;SDS011;34745;52.276;10.528;2023-03-14T05:57:54;1.70;;;0.80;;
48935;SDS011;34745;52.276;10.528;2023-03-14T06:00:21;2.17;;;1.00;;
48935;SDS011;34745;52.276;10.528;2023-03-14T06:02:49;0.70;;;0.70;;
48935;SDS011;34745;52.276;10.528;2023-03-14T06:05:16;1.77;;;0.90;;
48935;SDS011;34745;52.276;10.528;2023-03-14T06:07:44;0.90;;;0.90;;
48935;SDS011;34745;52.276;10.528;2023-03-14T06:10:11;1.73;;;0.90;;
48935;SDS011;34745;52.276;10.528;2023-03-14T06:12:38;1.40;;;0.73;;
48935;SDS011;34745;52.276;10.528;2023-03-14T06:15:06;2.67;;;0.70;;
48935;SDS011;34745;52.276;10.528;2023-03-14T06:17:33;4.27;;;1.00;;
48935;SDS011;34745;52.276;10.528;2023-03-14T06:20:00;2.30;;;1.00;;
48935;SDS011;34745;52.276;10.528;2023-03-14T06:22:27;2.40;;;0.97;;
48935;SDS011;34745;52.276;10.528;2023-03-14T06:24:56;1.10;;;0.90;;
48935;SDS011;34745;52.276;10.528;2023-03-14T06:27:23;4.10;;;1.00;;
48935;SDS011;34745;52.276;10.528;2023-03-14T06:29:50;4.03;;;1.00;;
48935;SDS011;34745;52.276;10.528;2023-03-14T06:32:17;1.70;;;0.90;;
48935;SDS011;34745;52.276;10.528;2023-03-14T06:34:44;2.67;;;1.00;;
48935;SDS011;34745;52.276;10.528;2023-03-14T06:37:12;1.50;;;0.97;;
48935;SDS011;34745;52.276;10.528;2023-03-14T06:39:38;1.63;;;1.17;;
48935;SDS011;34745;52.276;10.528;2023-03-14T06:42:07;2.07;;;1.20;;
48935;SDS011;34745;52.276;10.528;2023-03-14T06:44:34;6.87;;;1.10;;
48935;SDS011;34745;52.276;10.528;2023-03-14T06:47:01;3.80;;;1.13;;
48935;SDS011;34745;52.276;10.528;2023-03-14T06:49:29;1.70;;;1.13;;
48935;SDS011;34745;52.276;10.528;2023-03-14T06:51:55;1.30;;;0.80;;
48935;SDS011;34745;52.276;10.528;2023-03-14T06:54:23;3.00;;;1.27;;
48935;SDS011;34745;52.276;10.528;2023-03-14T06:56:50;2.27;;;1.20;;
48935;SDS011;34745;52.276;10.528;2023-03-14T06:59:18;5.80;;;1.73;;
48935;SDS011;34745;52.276;10.528;2023-03-14T07:01:45;6.47;;;1.43;;
48935;SDS011;34745;52.276;10.528;2023-03-14T07:04:12;2.93;;;1.20;;
48935;SDS011;34745;52.276;10.528;2023-03-14T07:06:39;1.70;;;1.00;;
48935;SDS011;34745;52.276;10.528;2023-03-14T07:09:10;4.00;;;1.33;;
48935;SDS011;34745;52.276;10.528;2023-03-14T07:11:37;4.00;;;1.30;;
48935;SDS011;34745;52.276;10.528;2023-03-14T07:14:04;4.80;;;1.50;;
48935;SDS011;34745;52.276;10.528;2023-03-14T07:16:32;3.27;;;1.10;;
48935;SDS011;34745;52.276;10.528;2023-03-14T07:19:00;1.50;;;1.10;;
48935;SDS011;34745;52.276;10.528;2023-03-14T07:21:28;4.50;;;1.30;;
48935;SDS011;34745;52.276;10.528;2023-03-14T07:23:55;1.83;;;0.90;;
48935;SDS011;34745;52.276;10.528;2023-03-14T07:26:22;2.60;;;1.10;;
48935;SDS011;34745;52.276;10.528;2023-03-14T07:28:49;2.03;;;1.10;;
48935;SDS011;34745;52.276;10.528;2023-03-14T07:31:16;2.13;;;0.90;;
48935;SDS011;34745;52.276;10.528;2023-03-14T07:33:44;5.07;;;1.40;;
48935;SDS011;34745;52.276;10.528;2023-03-14T07:36:11;1.70;;;1.10;;
48935;SDS011;34745;52.276;10.528;2023-03-14T07:38:38;4.63;;;1.10;;
48935;SDS011;34745;52.276;10.528;2023-03-14T07:41:05;2.30;;;1.13;;
48935;SDS011;34745;52.276;10.528;2023-03-14T07:43:33;6.83;;;1.50;;
48935;SDS011;34745;52.276;10.528;2023-03-14T07:46:00;3.77;;;1.30;;
48935;SDS011;34745;52.276;10.528;2023-03-14T07:48:27;7.10;;;1.33;;
48935;SDS011;34745;52.276;10.528;2023-03-14T07:50:56;2.67;;;0.90;;
48935;SDS011;34745;52.276;10.528;2023-03-14T07:53:23;5.30;;;1.10;;
48935;SDS011;34745;52.276;10.528;2023-03-14T07:55:51;3.23;;;1.30;;
48935;SDS011;34745;52.276;10.528;2023-03-14T07:58:19;3.00;;;1.50;;
48935;SDS011;34745;52.276;10.528;2023-03-14T08:00:48;1.13;;;1.00;;
48935;SDS011;34745;52.276;10.528;2023-03-14T08:03:15;3.00;;;1.63;;
48935;SDS011;34745;52.276;10.528;2023-03-14T08:05:43;3.77;;;1.20;;
48935;SDS011;34745;52.276;10.528;2023-03-14T08:08:12;2.97;;;1.27;;
48935;SDS011;34745;52.276;10.528;2023-03-14T08:10:39;4.27;;;1.50;;
48935;SDS011;34745;52.276;10.528;2023-03-14T08:13:06;4.63;;;1.40;;
48935;SDS011;34745;52.276;10.528;2023-03-14T08:15:33;8.70;;;1.63;;
48935;SDS011;34745;52.276;10.528;2023-03-14T08:18:00;3.63;;;1.30;;
48935;SDS011;34745;52.276;10.528;2023-03-14T08:20:28;6.70;;;1.70;;
48935;SDS011;34745;52.276;10.528;2023-03-14T08:22:56;5.40;;;1.53;;
48935;SDS011;34745;52.276;10.528;2023-03-14T08:25:26;6.43;;;1.40;;
48935;SDS011;34745;52.276;10.528;2023-03-14T08:27:53;7.10;;;1.40;;
48935;SDS011;34745;52.276;10.528;2023-03-14T08:30:21;4.83;;;1.60;;
48935;SDS011;34745;52.276;10.528;2023-03-14T08:32:48;3.20;;;1.47;;
48935;SDS011;34745;52.276;10.528;2023-03-14T08:35:16;5.60;;;1.23;;
48935;SDS011;34745;52.276;10.528;2023-03-14T08:37:43;5.10;;;1.63;;
48935;SDS011;34745;52.276;10.528;2023-03-14T08:40:11;5.10;;;1.60;;
48935;SDS011;34745;52.276;10.528;2023-03-14T08:42:39;5.33;;;1.80;;
48935;SDS011;34745;52.276;10.528;2023-03-14T08:45:07;5.83;;;1.70;;
48935;SDS011;34745;52.276;10.528;2023-03-14T08:47:37;4.87;;;1.40;;
48935;SDS011;34745;52.276;10.528;2023-03-14T08:50:04;4.30;;;1.43;;
48935;SDS011;34745;52.276;10.528;2023-03-14T08:52:32;3.80;;;1.53;;
48935;SDS011;34745;52.276;10.528;2023-03-14T08:54:59;4.53;;;1.40;;
48935;SDS011;34745;52.276;10.528;2023-03-14T08:57:26;0.93;;;0.70;;
48935;SDS011;34745;52.276;10.528;2023-03-14T08:59:55;4.17;;;1.00;;
48935;SDS011;34745;52.276;10.528;2023-03-14T09:02:22;2.70;;;1.40;;
48935;SDS011;34745;52.276;10.528;2023-03-14T09:04:50;1.97;;;1.10;;
48935;SDS011;34745;52.276;10.528;2023-03-14T09:07:17;3.37;;;0.90;;
48935;SDS011;34745;52.276;10.528;2023-03-14T09:09:44;3.40;;;1.00;;
48935;SDS011;34745;52.276;10.528;2023-03-14T09:12:12;1.40;;;1.03;;
48935;SDS011;34745;52.276;10.528;2023-03-14T09:14:39;3.87;;;1.20;;
48935;SDS011;34745;52.276;10.528;2023-03-14T09:17:07;2.97;;;1.30;;
48935;SDS011;34745;52.276;10.528;2023-03-14T09:19:34;4.27;;;1.20;;
48935;SDS011;34745;52.276;10.528;2023-03-14T09:22:01;2.53;;;0.80;;
48935;SDS011;34745;52.276;10.528;2023-03-14T09:24:28;3.80;;;0.87;;
48935;SDS011;34745;52.276;10.528;2023-03-14T09:26:56;1.87;;;1.00;;
48935;SDS011;34745;52.276;10.528;2023-03-14T09:29:23;3.87;;;0.90;;
48935;SDS011;34745;52.276;10.528;2023-03-14T09:31:50;1.97;;;0.97;;
48935;SDS011;34745;52.276;10.528;2023-03-14T09:34:19;2.90;;;1.03;;
48935;SDS011;34745;52.276;10.528;2023-03-14T09:36:46;2.13;;;1.23;;
48935;SDS011;34745;52.276;10.528;2023-03-14T09:39:13;2.23;;;1.07;;
48935;SDS011;34745;52.276;10.528;2023-03-14T09:41:41;2.83;;;1.03;;
48935;SDS011;34745;52.276;10.528;2023-03-14T09:44:13;1.67;;;1.00;;
48935;SDS011;34745;52.276;10.528;2023-03-14T09:46:43;2.37;;;1.10;;
48935;SDS011;34745;52.276;10.528;2023-03-14T09:49:16;5.03;;;1.23;;
48935;SDS011;34745;52.276;10.528;2023-03-14T09:51:49;1.07;;;0.90;;
48935;SDS011;34745;52.276;10.528;2023-03-14T09:54:24;1.40;;;0.80;;
48935;SDS011;34745;52.276;10.528;2023-03-14T09:56:57;1.83;;;1.00;;
48935;SDS011;34745;52.276;10.528;2023-03-14T09:59:25;7.00;;;1.13;;
48935;SDS011;34745;52.276;10.528;2023-03-14T10:01:53;0.97;;;0.87;;
48935;SDS011;34745;52.276;10.528;2023-03-14T10:04:22;1.77;;;0.80;;
48935;SDS011;34745;52.276;10.528;2023-03-14T10:06:50;1.67;;;0.97;;
48935;SDS011;34745;52.276;10.528;2023-03-14T10:09:18;0.97;;;0.77;;
48935;SDS011;34745;52.276;10.528;2023-03-14T10:11:53;0.90;;;0.90;;
48935;SDS011;34745;52.276;10.528;2023-03-14T10:14:29;0.87;;;0.70;;
48935;SDS011;34745;52.276;10.528;2023-03-14T10:17:04;1.40;;;0.70;;
48935;SDS011;34745;52.276;10.528;2023-03-14T10:19:35;1.80;;;0.67;;
48935;SDS011;34745;52.276;10.528;2023-03-14T10:22:03;0.70;;;0.70;;
48935;SDS011;34745;52.276;10.528;2023-03-14T10:24:32;5.00;;;0.67;;
48935;SDS011;34745;52.276;10.528;2023-03-14T10:27:01;2.60;;;0.87;;
48935;SDS011;34745;52.276;10.528;2023-03-14T10:29:29;1.67;;;0.70;;
48935;SDS011;34745;52.276;10.528;2023-03-14T10:31:58;0.70;;;0.70;;
48935;SDS011;34745;52.276;10.528;2023-03-14T10:34:28;1.23;;;0.70;;
48935;SDS011;34745;52.276;10.528;2023-03-14T10:36:59;0.50;;;0.50;;
48935;SDS011;34745;52.276;10.528;2023-03-14T10:39:37;2.60;;;0.80;;
48935;SDS011;34745;52.276;10.528;2023-03-14T10:42:15;0.50;;;0.50;;
48935;SDS011;34745;52.276;10.528;2023-03-14T10:44:45;0.50;;;0.50;;
48935;SDS011;34745;52.276;10.528;2023-03-14T10:47:17;0.50;;;0.50;;
48935;SDS011;34745;52.276;10.528;2023-03-14T10:49:46;0.50;;;0.50;;
48935;SDS011;34745;52.276;10.528;2023-03-14T10:52:17;0.83;;;0.60;;
48935;SDS011;34745;52.276;10.528;2023-03-14T10:55:10;0.67;;;0.60;;
48935;SDS011;34745;52.276;10.528;2023-03-14T10:57:39;2.93;;;0.80;;
48935;SDS011;34745;52.276;10.528;2023-03-14T11:00:09;3.53;;;0.83;;
48935;SDS011;34745;52.276;10.528;2023-03-14T11:02:47;1.97;;;0.80;;
48935;SDS011;34745;52.276;10.528;2023-03-14T11:05:27;0.70;;;0.63;;
48935;SDS011;34745;52.276;10.528;2023-03-14T11:08:01;2.33;;;0.80;;
48935;SDS011;34745;52.276;10.528;2023-03-14T11:10:34;0.60;;;0.60;;
48935;SDS011;34745;52.276;10.528;2023-03-14T11:13:07;0.60;;;0.60;;
48935;SDS011;34745;52.276;10.528;2023-03-14T11:15:41;0.80;;;0.60;;
48935;SDS011;34745;52.276;10.528;2023-03-14T11:18:18;2.23;;;1.10;;
48935;SDS011;34745;52.276;10.528;2023-03-14T11:20:57;1.80;;;0.80;;
48935;SDS011;34745;52.276;10.528;2023-03-14T11:23:31;0.70;;;0.70;;
48935;SDS011;34745;52.276;10.528;2023-03-14T11:26:08;0.70;;;0.70;;
48935;SDS011;34745;52.276;10.528;2023-03-14T11:28:41;1.37;;;1.00;;
48935;SDS011;34745;52.276;10.528;2023-03-14T11:31:16;2.20;;;0.70;;
48935;SDS011;34745;52.276;10.528;2023-03-14T11:33:48;1.20;;;0.70;;
48935;SDS011;34745;52.276;10.528;2023-03-14T11:36:24;0.70;;;0.70;;
48935;SDS011;34745;52.276;10.528;2023-03-14T11:38:57;0.87;;;0.87;;
48935;SDS011;34745;52.276;10.528;2023-03-14T11:41:27;1.57;;;0.63;;
48935;SDS011;34745;52.276;10.528;2023-03-14T11:43:57;1.17;;;0.70;;
48935;SDS011;34745;52.276;10.528;2023-03-14T11:46:26;0.70;;;0.70;;
48935;SDS011;34745;52.276;10.528;2023-03-14T11:48:58;1.00;;;1.00;;
48935;SDS011;34745;52.276;10.528;2023-03-14T11:51:29;1.23;;;0.77;;
48935;SDS011;34745;52.276;10.528;2023-03-14T11:54:02;0.60;;;0.60;;
48935;SDS011;34745;52.276;10.528;2023-03-14T11:56:39;0.80;;;0.80;;
48935;SDS011;34745;52.276;10.528;2023-03-14T11:59:14;1.93;;;0.73;;
48935;SDS011;34745;52.276;10.528;2023-03-14T12:01:51;2.40;;;0.87;;
48935;SDS011;34745;52.276;10.528;2023-03-14T12:04:32;0.70;;;0.70;;
48935;SDS011;34745;52.276;10.528;2023-03-14T12:07:12;2.10;;;0.80;;
48935;SDS011;34745;52.276;10.528;2023-03-14T12:09:46;1.23;;;1.10;;
48935;SDS011;34745;52.276;10.528;2023-03-14T12:12:16;0.87;;;0.87;;
48935;SDS011;34745;52.276;10.528;2023-03-14T12:14:46;1.77;;;1.20;;
48935;SDS011;34745;52.276;10.528;2023-03-14T12:17:20;1.60;;;0.70;;
48935;SDS011;34745;52.276;10.528;2023-03-14T12:19:55;2.73;;;1.10;;
48935;SDS011;34745;52.276;10.528;2023-03-14T12:22:28;8.67;;;1.00;;
48935;SDS011;34745;52.276;10.528;2023-03-14T12:25:00;4.87;;;1.10;;
48935;SDS011;34745;52.276;10.528;2023-03-14T12:27:49;1.73;;;0.70;;
48935;SDS011;34745;52.276;10.528;2023-03-14T12:30:30;1.20;;;0.70;;
48935;SDS011;34745;52.276;10.528;2023-03-14T12:36:00;0.90;;;0.90;;
48935;SDS011;34745;52.276;10.528;2023-03-14T12:38:45;1.10;;;1.00;;
48935;SDS011;34745;52.276;10.528;2023-03-14T12:41:21;1.67;;;0.93;;
48935;SDS011;34745;52.276;10.528;2023-03-14T12:43:51;1.37;;;0.77;;
48935;SDS011;34745;52.276;10.528;2023-03-14T12:46:19;1.00;;;0.90;;
48935;SDS011;34745;52.276;10.528;2023-03-14T12:48:49;2.53;;;0.80;;
48935;SDS011;34745;52.276;10.528;2023-03-14T12:51:20;0.73;;;0.70;;
48935;SDS011;34745;52.276;10.528;2023-03-14T12:54:02;0.93;;;0.60;;
48935;SDS011;34745;52.276;10.528;2023-03-14T12:56:54;0.60;;;0.60;;
48935;SDS011;34745;52.276;10.528;2023-03-14T12:59:34;0.70;;;0.70;;
48935;SDS011;34745;52.276;10.528;2023-03-14T13:02:13;3.60;;;0.80;;
48935;SDS011;34745;52.276;10.528;2023-03-14T13:04:47;0.70;;;0.70;;
48935;SDS011;34745;52.276;10.528;2023-03-14T13:07:28;0.93;;;0.87;;
48935;SDS011;34745;52.276;10.528;2023-03-14T13:12:50;0.70;;;0.70;;
48935;SDS011;34745;52.276;10.528;2023-03-14T13:15:21;0.73;;;0.73;;
48935;SDS011;34745;52.276;10.528;2023-03-14T13:17:52;0.60;;;0.60;;
48935;SDS011;34745;52.276;10.528;2023-03-14T13:20:24;0.70;;;0.70;;
48935;SDS011;34745;52.276;10.528;2023-03-14T13:22:56;0.67;;;0.67;;
48935;SDS011;34745;52.276;10.528;2023-03-14T13:25:23;0.80;;;0.80;;
48935;SDS011;34745;52.276;10.528;2023-03-14T13:27:56;0.90;;;0.90;;
48935;SDS011;34745;52.276;10.528;2023-03-14T13:30:24;2.37;;;1.10;;
48935;SDS011;34745;52.276;10.528;2023-03-14T13:32:54;1.30;;;1.20;;
48935;SDS011;34745;52.276;10.528;2023-03-14T13:35:22;1.80;;;1.13;;
48935;SDS011;34745;52.276;10.528;2023-03-14T13:37:55;0.90;;;0.90;;
48935;SDS011;34745;52.276;10.528;2023-03-14T13:40:37;1.00;;;1.00;;
48935;SDS011;34745;52.276;10.528;2023-03-14T13:43:09;1.17;;;1.07;;
48935;SDS011;34745;52.276;10.528;2023-03-14T13:45:44;2.40;;;1.00;;
48935;SDS011;34745;52.276;10.528;2023-03-14T13:48:15;0.90;;;0.67;;
48935;SDS011;34745;52.276;10.528;2023-03-14T13:50:50;1.00;;;0.90;;
48935;SDS011;34745;52.276;10.528;2023-03-14T13:53:20;2.50;;;1.07;;
48935;SDS011;34745;52.276;10.528;2023-03-14T13:55:47;5.27;;;1.37;;
48935;SDS011;34745;52.276;10.528;2023-03-14T13:58:21;3.50;;;1.40;;
48935;SDS011;34745;52.276;10.528;2023-03-14T14:00:54;5.17;;;1.73;;
48935;SDS011;34745;52.276;10.528;2023-03-14T14:03:23;11.87;;;2.43;;
48935;SDS011;34745;52.276;10.528;2023-03-14T14:05:50;7.60;;;1.83;;
48935;SDS011;34745;52.276;10.528;2023-03-14T14:08:17;6.67;;;2.00;;
48935;SDS011;34745;52.276;10.528;2023-03-14T14:10:44;4.37;;;1.97;;
48935;SDS011;34745;52.276;10.528;2023-03-14T14:13:16;5.50;;;1.80;;
48935;SDS011;34745;52.276;10.528;2023-03-14T14:15:49;7.57;;;2.00;;
48935;SDS011;34745;52.276;10.528;2023-03-14T14:18:19;6.03;;;2.13;;
48935;SDS011;34745;52.276;10.528;2023-03-14T14:20:51;4.03;;;1.63;;
48935;SDS011;34745;52.276;10.528;2023-03-14T14:23:19;7.87;;;1.87;;
48935;SDS011;34745;52.276;10.528;2023-03-14T14:25:51;11.00;;;2.27;;
48935;SDS011;34745;52.276;10.528;2023-03-14T14:28:23;8.67;;;2.33;;
48935;SDS011;34745;52.276;10.528;2023-03-14T14:31:05;9.63;;;2.33;;
48935;SDS011;34745;52.276;10.528;2023-03-14T14:33:45;6.97;;;1.60;;
48935;SDS011;34745;52.276;10.528;2023-03-14T14:36:19;4.67;;;1.63;;
48935;SDS011;34745;52.276;10.528;2023-03-14T14:38:50;8.53;;;1.77;;
48935;SDS011;34745;52.276;10.528;2023-03-14T14:41:18;8.03;;;2.07;;
48935;SDS011;34745;52.276;10.528;2023-03-14T14:43:46;9.40;;;1.70;;
48935;SDS011;34745;52.276;10.528;2023-03-14T14:46:18;12.73;;;2.33;;
48935;SDS011;34745;52.276;10.528;2023-03-14T14:48:45;13.93;;;1.53;;
48935;SDS011;34745;52.276;10.528;2023-03-14T14:51:22;7.10;;;1.90;;
48935;SDS011;34745;52.276;10.528;2023-03-14T14:53:59;11.13;;;2.00;;
48935;SDS011;34745;52.276;10.528;2023-03-14T14:56:34;9.80;;;1.90;;